Time;durP1;ratioP1;P1;durP2;ratioP2;P2;SDS_P1;SDS_P2;PMS_P1;PMS_P2;Temp;Humidity;BMP_temperature;BMP_pressure;BME280_temperature;BME280_humidity;BME280_pressure;Samples;Min_cycle;Max_cycle;Signal;HPM_P1;HPM_P2
2021/06/13 05:30:44;;;;;;;7.80;2.57;;;12.70;99.90;;;;;;6001236;23;20388;-93
2021/06/13 05:33:57;;;;;;;9.27;2.70;;;12.70;99.90;;;;;;5007646;28;20441;-94
2021/06/13 05:42:41;;;;;;;7.82;2.90;;;12.90;99.90;;;;;;5724374;22;20530;-95
2021/06/13 06:28:14;;;;;;;5.45;1.85;;;15.60;99.90;;;;;;5634315;23;20454;-91
2021/06/13 06:30:41;;;;;;;5.13;1.90;;;15.90;99.90;;;;;;4942875;29;20453;-92
2021/06/13 06:33:08;;;;;;;6.90;1.87;;;16.00;99.90;;;;;;4942965;29;20438;-91
2021/06/13 07:38:44;;;;;;;4.67;1.63;;;15.10;99.90;;;;;;6238147;22;2152333;-96
2021/06/13 07:41:18;;;;;;;4.22;1.65;;;15.80;99.90;;;;;;6330102;22;20689;-96
2021/06/13 07:43:57;;;;;;;5.35;2.03;;;15.80;99.90;;;;;;6335297;22;20392;-94
2021/06/13 07:46:36;;;;;;;6.20;1.87;;;15.80;99.90;;;;;;6334640;22;20414;-96
2021/06/13 07:49:05;;;;;;;4.30;1.63;;;15.70;99.90;;;;;;6332848;22;20380;-96
2021/06/13 07:52:00;;;;;;;6.97;2.00;;;15.50;99.90;;;;;;6333255;22;20431;-93
2021/06/13 07:54:31;;;;;;;7.20;2.00;;;15.10;99.90;;;;;;6307615;22;20398;-96
2021/06/13 07:56:58;;;;;;;5.85;1.90;;;15.00;99.90;;;;;;6327791;22;20451;-95
2021/06/13 07:59:36;;;;;;;5.93;1.85;;;14.90;99.90;;;;;;6330333;22;20444;-96
2021/06/13 08:02:14;;;;;;;9.75;2.10;;;14.90;99.90;;;;;;6334462;22;20384;-96
2021/06/13 08:04:52;;;;;;;5.82;2.00;;;15.00;99.90;;;;;;6357765;22;20756;-96
2021/06/13 08:07:20;;;;;;;6.15;1.60;;;15.30;99.90;;;;;;6334125;22;20392;-96
2021/06/13 08:09:53;;;;;;;7.63;1.80;;;15.50;99.90;;;;;;6334456;22;20376;-93
2021/06/13 08:12:26;;;;;;;7.23;1.80;;;15.40;99.90;;;;;;6331800;22;20369;-94
2021/06/13 08:14:56;;;;;;;4.72;1.85;;;15.50;99.90;;;;;;6332656;22;20392;-93
2021/06/13 08:17:41;;;;;;;7.77;1.80;;;15.60;99.90;;;;;;6350424;22;20451;-95
2021/06/13 08:20:19;;;;;;;5.50;1.75;;;15.80;99.90;;;;;;6311645;22;20793;-96
2021/06/13 08:22:57;;;;;;;4.97;1.50;;;15.70;99.90;;;;;;6333942;22;20384;-96
2021/06/13 08:25:33;;;;;;;7.50;1.52;;;15.80;99.90;;;;;;6306576;22;20372;-93
2021/06/13 08:28:08;;;;;;;4.75;1.60;;;15.60;99.90;;;;;;6357604;22;20483;-96
2021/06/13 08:30:44;;;;;;;5.57;1.50;;;15.60;99.90;;;;;;6329328;22;20406;-95
2021/06/13 08:33:12;;;;;;;4.93;1.50;;;15.90;99.90;;;;;;6332098;22;20376;-96
2021/06/13 08:36:10;;;;;;;4.75;1.50;;;16.10;99.90;;;;;;6334315;22;20381;-96
2021/06/13 08:38:44;;;;;;;3.78;1.40;;;16.00;99.90;;;;;;6327148;22;20435;-96
2021/06/13 08:41:18;;;;;;;5.97;1.60;;;15.90;99.90;;;;;;6295652;22;20385;-96
2021/06/13 08:43:50;;;;;;;6.97;1.77;;;15.90;99.90;;;;;;6319412;22;20461;-94
2021/06/13 08:46:54;;;;;;;4.03;1.40;;;15.90;99.90;;;;;;6322054;22;20375;-96
2021/06/13 08:49:28;;;;;;;6.70;1.70;;;15.90;99.90;;;;;;6283736;22;20389;-95
2021/06/13 08:52:31;;;;;;;8.15;1.60;;;16.00;99.90;;;;;;6323633;22;20385;-94
2021/06/13 08:55:12;;;;;;;7.72;1.95;;;16.20;99.90;;;;;;6316508;22;20462;-95
2021/06/13 08:57:44;;;;;;;7.20;1.73;;;16.10;99.90;;;;;;6315338;22;20386;-96
2021/06/13 09:00:20;;;;;;;5.82;1.70;;;16.00;99.90;;;;;;6316104;22;20405;-95
2021/06/13 09:02:49;;;;;;;5.57;1.70;;;15.60;99.90;;;;;;6291267;22;20446;-96
2021/06/13 09:05:22;;;;;;;7.32;1.60;;;15.50;99.90;;;;;;6314633;22;20383;-95
2021/06/13 09:07:55;;;;;;;6.30;1.60;;;15.60;99.90;;;;;;6321123;22;20382;-94
2021/06/13 09:10:39;;;;;;;7.00;1.77;;;15.60;99.90;;;;;;6317477;22;20404;-93
2021/06/13 09:13:23;;;;;;;3.72;1.60;;;15.70;99.90;;;;;;6316689;22;20402;-93
2021/06/13 09:16:05;;;;;;;5.45;1.55;;;16.00;99.90;;;;;;6294090;22;20446;-96
2021/06/13 09:18:52;;;;;;;4.32;1.65;;;16.30;99.90;;;;;;6321394;22;20385;-96
2021/06/13 09:21:46;;;;;;;8.15;1.88;;;16.50;99.90;;;;;;6322267;22;20390;-96
2021/06/13 09:24:22;;;;;;;6.10;1.70;;;15.90;99.90;;;;;;6319752;22;20374;-96
2021/06/13 09:27:09;;;;;;;5.10;1.65;;;16.10;99.90;;;;;;6322851;22;20394;-96
2021/06/13 09:29:53;;;;;;;6.30;1.60;;;16.30;99.90;;;;;;6323263;22;20374;-96
2021/06/13 09:32:21;;;;;;;7.25;2.22;;;16.10;99.90;;;;;;6272193;22;20451;-96
2021/06/13 09:35:30;;;;;;;5.82;1.52;;;16.10;99.90;;;;;;6324198;22;20362;-96
2021/06/13 09:38:28;;;;;;;3.20;1.60;;;16.20;99.90;;;;;;6234416;23;20396;-96
2021/06/13 09:41:04;;;;;;;3.50;1.48;;;16.10;99.90;;;;;;6230285;23;20382;-94
2021/06/13 09:43:40;;;;;;;5.20;1.77;;;16.40;99.90;;;;;;6222770;23;20382;-93
2021/06/13 09:46:33;;;;;;;4.32;1.50;;;16.50;99.90;;;;;;6229131;23;20924;-96
2021/06/13 09:49:45;;;;;;;5.93;1.80;;;16.60;99.90;;;;;;6239428;22;20402;-96
2021/06/13 09:55:28;;;;;;;6.80;1.80;;;16.60;99.90;;;;;;6266993;22;20395;-96
2021/06/13 09:58:05;;;;;;;8.13;2.00;;;16.50;99.90;;;;;;6287264;22;20378;-94
2021/06/13 10:00:36;;;;;;;16.70;2.35;;;16.30;99.90;;;;;;6286166;22;20470;-95
2021/06/13 10:03:24;;;;;;;4.63;1.52;;;16.50;99.90;;;;;;6287604;22;20389;-95
2021/06/13 10:08:38;;;;;;;10.43;2.03;;;16.60;99.90;;;;;;6318579;22;20391;-96
2021/06/13 10:11:06;;;;;;;4.55;1.60;;;16.80;99.90;;;;;;6290340;22;20368;-96
2021/06/13 10:13:59;;;;;;;13.75;2.00;;;16.80;99.90;;;;;;6262723;22;20376;-96
2021/06/13 10:19:58;;;;;;;5.65;1.80;;;16.90;99.70;;;;;;6292964;22;20394;-96
2021/06/13 10:23:35;;;;;;;4.88;1.60;;;16.40;99.90;;;;;;6297523;22;20355;-96
2021/06/13 12:42:33;;;;;;;4.18;1.60;;;20.90;92.90;;;;;;6308560;22;20383;-96
2021/06/13 12:53:15;;;;;;;5.13;1.48;;;19.90;92.10;;;;;;6298773;22;20447;-90
2021/06/13 14:40:52;;;;;;;8.77;1.90;;;22.00;76.80;;;;;;6237833;22;20407;31
2021/06/13 15:39:35;;;;;;;4.70;1.60;;;23.00;70.00;;;;;;6271653;22;20388;-92
2021/06/13 15:42:08;;;;;;;7.07;1.88;;;23.40;69.60;;;;;;6281700;22;20359;-95
2021/06/13 15:44:44;;;;;;;6.15;1.80;;;24.10;67.10;;;;;;6313553;22;20444;-90
2021/06/13 15:47:11;;;;;;;6.53;1.60;;;24.40;67.00;;;;;;6281265;22;20386;-89
2021/06/13 15:49:38;;;;;;;7.30;1.75;;;24.30;63.90;;;;;;6310251;22;20371;-90
2021/06/13 15:52:05;;;;;;;5.28;1.70;;;24.10;64.50;;;;;;6282989;22;20449;-90
2021/06/13 15:54:34;;;;;;;7.10;1.60;;;24.00;64.40;;;;;;6283415;22;20379;-90
2021/06/13 15:57:04;;;;;;;5.78;1.80;;;23.80;65.80;;;;;;6283601;22;20421;-96
2021/06/13 15:59:34;;;;;;;5.47;1.75;;;24.10;63.70;;;;;;6284433;22;20447;-92
2021/06/13 16:02:03;;;;;;;3.95;1.42;;;24.20;62.00;;;;;;6287415;22;20373;-94
2021/06/13 16:04:30;;;;;;;6.82;1.60;;;24.00;61.60;;;;;;6285425;22;20389;-96
2021/06/13 16:07:10;;;;;;;6.20;1.70;;;24.00;63.10;;;;;;6294767;22;20388;-95
2021/06/13 16:09:48;;;;;;;4.60;1.42;;;23.90;60.40;;;;;;6294388;22;20408;-93
2021/06/13 16:12:15;;;;;;;7.60;1.63;;;24.20;60.50;;;;;;6285427;22;20382;-93
2021/06/13 16:14:45;;;;;;;6.35;1.80;;;24.20;61.70;;;;;;6284223;22;20382;-95
2021/06/13 16:25:27;;;;;;;6.38;1.80;;;23.40;62.10;;;;;;6270218;22;20367;-96
2021/06/13 16:28:01;;;;;;;6.60;1.53;;;23.20;62.50;;;;;;6291095;22;20392;-96
2021/06/13 16:30:38;;;;;;;4.78;1.50;;;23.40;63.00;;;;;;6290666;22;20400;-96
2021/06/13 16:33:05;;;;;;;4.38;1.60;;;22.80;63.30;;;;;;6281735;22;20501;-94
2021/06/13 16:35:55;;;;;;;5.13;1.60;;;22.30;63.60;;;;;;6290626;22;20394;-96
2021/06/13 16:39:06;;;;;;;6.82;1.80;;;21.90;65.90;;;;;;6313013;22;20371;-96
2021/06/13 16:41:36;;;;;;;5.72;1.73;;;21.20;68.00;;;;;;6283945;22;20379;-95
2021/06/13 16:44:04;;;;;;;7.68;1.67;;;20.80;66.30;;;;;;6289504;22;20392;-96
2021/06/13 16:46:32;;;;;;;4.17;1.60;;;20.50;70.20;;;;;;6290296;22;20382;-96
2021/06/13 16:49:03;;;;;;;4.82;1.60;;;20.30;74.30;;;;;;6285458;22;20393;-95
2021/06/13 16:51:31;;;;;;;4.90;1.70;;;20.10;74.00;;;;;;6282491;22;20465;-96
2021/06/13 16:53:58;;;;;;;5.75;1.75;;;20.10;76.20;;;;;;6286813;22;20389;-96
2021/06/13 16:56:26;;;;;;;4.37;1.50;;;19.90;76.00;;;;;;6299434;22;20371;-95
2021/06/13 16:59:07;;;;;;;5.63;1.70;;;19.70;73.50;;;;;;6293989;22;20375;-94
2021/06/13 17:01:37;;;;;;;6.93;1.80;;;19.50;77.80;;;;;;6292014;22;20370;-95
2021/06/13 17:04:05;;;;;;;5.32;1.80;;;19.10;77.60;;;;;;6262323;22;20470;-93
2021/06/13 17:06:32;;;;;;;5.05;1.80;;;19.00;76.90;;;;;;6289079;22;20486;-95
2021/06/13 17:17:28;;;;;;;7.30;1.70;;;18.70;82.60;;;;;;6243678;22;20360;-91
2021/06/13 17:29:12;;;;;;;15.02;2.30;;;17.90;88.70;;;;;;6315818;22;20420;-94
2021/06/13 17:34:30;;;;;;;3.25;1.58;;;17.60;90.90;;;;;;6275419;22;20386;-96
2021/06/13 17:36:59;;;;;;;12.05;2.10;;;17.40;89.40;;;;;;6312428;22;20480;-94
2021/06/13 17:55:38;;;;;;;7.65;2.08;;;17.90;88.30;;;;;;6278529;22;20750;-88
2021/06/13 17:58:13;;;;;;;5.80;2.00;;;17.50;88.50;;;;;;6278070;22;20384;-92
2021/06/13 18:00:40;;;;;;;4.35;1.80;;;17.40;90.90;;;;;;6279039;22;20384;-94
2021/06/13 18:03:13;;;;;;;4.65;1.80;;;17.50;89.60;;;;;;6277054;22;20516;-95
2021/06/13 18:05:39;;;;;;;4.60;1.65;;;17.20;91.70;;;;;;6275729;22;20385;-87
2021/06/13 18:08:07;;;;;;;7.10;1.95;;;17.30;86.10;;;;;;6276229;22;20450;-90
2021/06/13 18:10:34;;;;;;;5.93;2.10;;;17.00;91.60;;;;;;6275983;22;20434;-90
2021/06/13 18:13:00;;;;;;;6.13;2.00;;;16.70;93.30;;;;;;6277728;22;20679;-95
2021/06/13 18:15:27;;;;;;;4.82;2.08;;;16.40;92.00;;;;;;6276909;22;20383;-89
2021/06/13 18:17:55;;;;;;;6.00;2.30;;;16.30;94.00;;;;;;6276229;22;20785;-89
2021/06/13 18:20:22;;;;;;;8.37;2.40;;;16.20;95.40;;;;;;6276118;22;20384;-91
2021/06/13 18:22:49;;;;;;;7.57;2.10;;;16.20;94.00;;;;;;6276306;22;20368;-91
2021/06/13 18:25:17;;;;;;;5.40;2.08;;;16.50;90.10;;;;;;6275584;22;20937;-93
2021/06/13 18:27:47;;;;;;;7.20;2.40;;;16.50;93.70;;;;;;6279437;22;20396;-93
2021/06/13 18:30:18;;;;;;;7.63;2.13;;;16.50;92.60;;;;;;6279745;22;20384;-95
2021/06/13 18:32:45;;;;;;;10.20;2.40;;;16.40;90.50;;;;;;6275539;22;20402;-95
2021/06/13 18:35:13;;;;;;;8.40;2.40;;;16.20;92.10;;;;;;6275543;22;20659;-93
2021/06/13 18:43:11;;;;;;;5.82;2.28;;;15.70;92.20;;;;;;6288477;22;20728;-96
2021/06/13 18:49:09;;;;;;;8.65;2.40;;;15.30;94.30;;;;;;6315806;22;20397;-96
2021/06/13 19:00:57;;;;;;;7.18;3.00;;;14.30;97.50;;;;;;6253124;22;20620;-96
2021/06/13 19:03:44;;;;;;;13.30;3.17;;;14.20;99.00;;;;;;6217698;22;20394;-96
2021/06/13 19:07:07;;;;;;;7.63;3.22;;;14.00;99.30;;;;;;6292722;22;20375;-96
2021/06/13 19:13:51;;;;;;;8.35;3.15;;;13.70;99.90;;;;;;6187379;23;20389;-96
2021/06/13 19:16:57;;;;;;;6.60;3.25;;;13.40;99.90;;;;;;6190090;23;20377;-96
2021/06/13 19:19:45;;;;;;;9.13;3.10;;;13.20;99.90;;;;;;6134333;23;20383;-96
2021/06/13 19:22:36;;;;;;;11.53;3.70;;;13.20;99.90;;;;;;6134732;23;20404;-96
2021/06/13 19:25:17;;;;;;;11.23;3.80;;;13.00;99.90;;;;;;6132173;23;20647;-95
2021/06/13 19:28:00;;;;;;;8.32;4.07;;;13.00;99.90;;;;;;6131092;23;20399;-95
2021/06/13 19:30:56;;;;;;;;;;;;;;;;;;;;;
2021/06/13 19:33:56;;;;;;;12.48;4.25;;;12.60;99.90;;;;;;6157413;23;20354;-96
2021/06/13 19:36:39;;;;;;;;;;;;;;;;;;;;;
2021/06/13 19:40:22;;;;;;;10.77;4.23;;;12.30;99.90;;;;;;6158166;23;20551;-96
2021/06/13 19:43:08;;;;;;;11.88;4.15;;;12.20;99.90;;;;;;6016377;23;21388;-96
2021/06/13 19:46:22;;;;;;;12.25;4.10;;;12.10;99.90;;;;;;6009398;23;20408;-95
2021/06/13 19:49:39;;;;;;;;;;;;;;;;;;;;;
2021/06/13 19:53:17;;;;;;;;;;;;;;;;;;;;;
2021/06/13 20:11:21;;;;;;;;;;;;;;;;;;;;;
